Time;durP1;ratioP1;P1;durP2;ratioP2;P2;SDS_P1;SDS_P2;PMS_P1;PMS_P2;Temp;Humidity;BMP_temperature;BMP_pressure;BME280_temperature;BME280_humidity;BME280_pressure;Samples;Min_cycle;Max_cycle;Signal;HPM_P1;HPM_P2
2023/06/24 00:00:55;;;;;;;;;;;18.40;55.90;;;;;;6307603;22;19985;-79
2023/06/24 00:03:21;;;;;;;;;;;18.40;55.90;;;;;;6306894;22;19943;-77
2023/06/24 00:05:49;;;;;;;;;;;18.30;55.90;;;;;;6307453;22;20396;-77
2023/06/24 00:08:15;;;;;;;;;;;18.30;56.00;;;;;;6307214;22;20321;-79
2023/06/24 00:10:42;;;;;;;;;;;18.20;56.00;;;;;;6307521;22;19934;-77
2023/06/24 00:13:08;;;;;;;;;;;18.20;56.20;;;;;;6306411;22;19910;-77
2023/06/24 00:15:34;;;;;;;;;;;18.20;56.20;;;;;;6306928;22;19915;-77
2023/06/24 00:18:05;;;;;;;;;;;18.20;56.40;;;;;;6306809;22;20328;-76
2023/06/24 00:20:30;;;;;;;;;;;18.10;56.40;;;;;;6307350;22;19911;-76
2023/06/24 00:22:56;;;;;;;;;;;18.10;56.40;;;;;;6306455;22;19989;-77
2023/06/24 00:25:21;;;;;;;;;;;18.00;56.40;;;;;;6306934;22;20322;-78
2023/06/24 00:27:47;;;;;;;;;;;18.00;56.70;;;;;;6306440;22;19903;-75
2023/06/24 00:30:12;;;;;;;;;;;17.90;56.80;;;;;;6307122;22;20236;-78
2023/06/24 00:32:38;;;;;;;;;;;17.90;56.80;;;;;;6306555;22;19918;-77
2023/06/24 00:35:03;;;;;;;;;;;17.90;57.00;;;;;;6279550;22;19942;-70
2023/06/24 00:37:29;;;;;;;;;;;17.90;57.20;;;;;;6278983;22;19973;-70
2023/06/24 00:39:54;;;;;;;;;;;17.80;57.30;;;;;;6306538;22;20363;-70
2023/06/24 00:42:20;;;;;;;;;;;17.80;57.40;;;;;;6306643;22;19986;-70
2023/06/24 00:44:45;;;;;;;;;;;17.80;57.50;;;;;;6306741;22;19921;-70
2023/06/24 00:47:11;;;;;;;;;;;17.70;57.70;;;;;;6306063;22;20312;-70
2023/06/24 00:49:36;;;;;;;;;;;17.70;57.90;;;;;;6306489;22;19915;-70
2023/06/24 00:52:02;;;;;;;;;;;17.70;58.10;;;;;;6306200;22;19991;-69
2023/06/24 00:54:30;;;;;;;;;;;17.60;58.00;;;;;;6306311;22;19918;-70
2023/06/24 00:56:56;;;;;;;;;;;17.70;58.00;;;;;;6306335;22;19930;-70
2023/06/24 00:59:22;;;;;;;;;;;17.60;57.90;;;;;;6306105;22;19918;-70
2023/06/24 01:01:49;;;;;;;;;;;17.60;57.90;;;;;;6306294;22;20317;-77
2023/06/24 01:04:16;;;;;;;;;;;17.50;58.00;;;;;;6306098;22;20233;-78
2023/06/24 01:06:43;;;;;;;;;;;17.50;58.10;;;;;;6305939;22;19917;-78
2023/06/24 01:09:09;;;;;;;;;;;17.50;58.30;;;;;;6306184;22;19907;-77
2023/06/24 01:11:34;;;;;;;;;;;17.50;58.30;;;;;;6278783;22;19907;-77
2023/06/24 01:14:00;;;;;;;;;;;17.50;58.30;;;;;;6305947;22;20281;-78
2023/06/24 01:16:32;;;;;;;;;;;17.40;58.20;;;;;;6306239;22;19938;-78
2023/06/24 01:19:00;;;;;;;;;;;17.40;58.20;;;;;;6305942;22;19997;-77
2023/06/24 01:21:33;;;;;;;;;;;17.40;58.20;;;;;;6306054;22;19911;-77
2023/06/24 01:23:58;;;;;;;;;;;17.30;58.30;;;;;;6306041;22;20336;-76
2023/06/24 01:26:43;;;;;;;;;;;17.30;58.30;;;;;;6306120;22;19907;-78
2023/06/24 01:29:22;;;;;;;;;;;17.30;58.30;;;;;;6305510;22;19980;-77
2023/06/24 01:31:49;;;;;;;;;;;17.30;58.40;;;;;;6305718;22;19914;-77
2023/06/24 01:34:26;;;;;;;;;;;17.20;58.40;;;;;;6305910;22;19956;-78
2023/06/24 01:37:10;;;;;;;;;;;17.20;58.50;;;;;;6305541;22;19915;-78
2023/06/24 01:39:37;;;;;;;;;;;17.20;58.70;;;;;;6305927;22;19907;-76
2023/06/24 01:42:07;;;;;;;;;;;17.20;58.90;;;;;;6305419;22;19910;-77
2023/06/24 01:44:33;;;;;;;;;;;17.10;58.90;;;;;;6306271;22;19915;-78
2023/06/24 01:46:59;;;;;;;;;;;17.10;59.10;;;;;;6305493;22;20002;-77
2023/06/24 01:49:27;;;;;;;;;;;17.00;59.20;;;;;;6305877;22;19910;-78
2023/06/24 01:51:55;;;;;;;;;;;17.10;59.30;;;;;;6305478;22;19911;-78
2023/06/24 01:54:22;;;;;;;;;;;17.00;59.30;;;;;;6305815;22;20318;-78
2023/06/24 01:56:49;;;;;;;;;;;17.00;59.30;;;;;;6305674;22;19911;-78
2023/06/24 01:59:16;;;;;;;;;;;17.00;59.30;;;;;;6305735;22;19960;-78
2023/06/24 02:01:42;;;;;;;;;;;17.00;59.40;;;;;;6305504;22;19907;-78
2023/06/24 02:04:08;;;;;;;;;;;17.00;59.40;;;;;;6305670;22;19922;-77
2023/06/24 02:06:35;;;;;;;;;;;16.90;59.40;;;;;;6306009;22;20213;-78
2023/06/24 02:09:00;;;;;;;;;;;16.90;59.80;;;;;;6305724;22;19914;-78
2023/06/24 02:11:28;;;;;;;;;;;16.90;59.80;;;;;;6305280;22;19989;-77
2023/06/24 02:13:54;;;;;;;;;;;16.90;60.10;;;;;;6305592;22;19918;-78
2023/06/24 02:16:20;;;;;;;;;;;16.90;60.10;;;;;;6305403;22;20297;-79
2023/06/24 02:18:47;;;;;;;;;;;16.90;60.20;;;;;;6305594;22;19903;-78
2023/06/24 02:21:13;;;;;;;;;;;16.90;60.30;;;;;;6305284;22;19909;-78
2023/06/24 02:23:39;;;;;;;;;;;16.90;60.30;;;;;;6305483;22;19907;-74
2023/06/24 02:26:05;;;;;;;;;;;16.80;60.20;;;;;;6306003;22;20338;-77
2023/06/24 02:28:32;;;;;;;;;;;16.80;60.30;;;;;;6306042;22;20298;-78
2023/06/24 02:30:58;;;;;;;;;;;16.80;60.30;;;;;;6305094;22;19910;-77
2023/06/24 02:33:23;;;;;;;;;;;16.80;60.30;;;;;;6305228;22;19903;-78
2023/06/24 02:35:49;;;;;;;;;;;16.80;60.40;;;;;;6304953;22;20236;-77
2023/06/24 02:38:14;;;;;;;;;;;16.80;60.30;;;;;;6303489;22;19926;-77
2023/06/24 02:40:42;;;;;;;;;;;16.80;60.40;;;;;;6305902;22;19915;-77
2023/06/24 02:43:08;;;;;;;;;;;16.70;60.40;;;;;;6305842;22;19903;-71
2023/06/24 02:45:33;;;;;;;;;;;16.70;60.50;;;;;;6306135;22;20267;-70
2023/06/24 02:47:59;;;;;;;;;;;16.70;60.50;;;;;;6305229;22;19982;-70
2023/06/24 02:50:25;;;;;;;;;;;16.70;60.40;;;;;;6305823;22;19911;-70
2023/06/24 02:52:51;;;;;;;;;;;16.70;60.40;;;;;;6305504;22;19903;-71
2023/06/24 02:55:17;;;;;;;;;;;16.70;60.40;;;;;;6307477;22;19989;-71
2023/06/24 02:57:43;;;;;;;;;;;16.70;60.40;;;;;;6280205;22;19953;-71
2023/06/24 03:00:12;;;;;;;;;;;16.60;60.50;;;;;;6308165;22;19911;-71
2023/06/24 03:02:38;;;;;;;;;;;16.60;60.50;;;;;;6307231;22;20329;-70
2023/06/24 03:05:04;;;;;;;;;;;16.60;60.50;;;;;;6306908;22;19918;-70
2023/06/24 03:07:30;;;;;;;;;;;16.60;60.60;;;;;;6279912;22;20298;-71
2023/06/24 03:09:55;;;;;;;;;;;16.60;60.70;;;;;;6307662;22;19967;-70
2023/06/24 03:12:20;;;;;;;;;;;16.60;60.90;;;;;;6307316;22;19903;-70
2023/06/24 03:14:46;;;;;;;;;;;16.70;61.20;;;;;;6279803;22;19964;-71
2023/06/24 03:17:11;;;;;;;;;;;16.70;61.40;;;;;;6307127;22;19914;-71
2023/06/24 03:19:37;;;;;;;;;;;16.70;61.30;;;;;;6307502;22;19914;-71
2023/06/24 03:22:05;;;;;;;;;;;16.70;61.30;;;;;;6307491;22;19985;-70
2023/06/24 03:24:30;;;;;;;;;;;16.80;61.50;;;;;;6307295;22;19915;-70
2023/06/24 03:26:56;;;;;;;;;;;16.80;61.70;;;;;;6307154;22;19910;-71
2023/06/24 03:29:22;;;;;;;;;;;16.90;61.80;;;;;;6279782;22;19994;-71
2023/06/24 03:31:48;;;;;;;;;;;17.10;62.10;;;;;;6306727;22;19949;-71
2023/06/24 03:34:13;;;;;;;;;;;17.20;62.50;;;;;;6307432;22;19922;-71
2023/06/24 03:36:39;;;;;;;;;;;17.30;62.50;;;;;;6279570;22;19938;-71
2023/06/24 03:39:04;;;;;;;;;;;17.50;62.70;;;;;;6306948;22;20390;-71
2023/06/24 03:41:30;;;;;;;;;;;17.70;62.70;;;;;;6307308;22;19903;-70
2023/06/24 03:43:55;;;;;;;;;;;17.80;62.90;;;;;;6306888;22;19915;-71
2023/06/24 03:46:21;;;;;;;;;;;18.00;63.00;;;;;;6306858;22;19907;-71
2023/06/24 03:48:47;;;;;;;;;;;18.30;63.00;;;;;;6307060;22;19909;-71
2023/06/24 03:51:12;;;;;;;;;;;18.40;63.10;;;;;;6306899;22;19903;-71
2023/06/24 03:53:38;;;;;;;;;;;18.70;63.10;;;;;;6306885;22;19949;-71
2023/06/24 03:56:04;;;;;;;;;;;19.00;63.10;;;;;;6306568;22;19911;-70
2023/06/24 03:58:29;;;;;;;;;;;19.30;63.10;;;;;;6306881;22;20237;-70
2023/06/24 04:00:56;;;;;;;;;;;19.60;63.10;;;;;;6307138;22;20343;-70
2023/06/24 04:03:22;;;;;;;;;;;19.80;62.90;;;;;;6306923;22;19913;-71
2023/06/24 04:05:48;;;;;;;;;;;20.20;62.80;;;;;;6307155;22;19914;-71
2023/06/24 04:08:14;;;;;;;;;;;20.40;62.60;;;;;;6306797;22;19925;-70
2023/06/24 04:10:39;;;;;;;;;;;20.70;62.40;;;;;;6307005;22;20222;-70
2023/06/24 04:13:04;;;;;;;;;;;21.00;62.30;;;;;;6306384;22;19907;-70
2023/06/24 04:15:30;;;;;;;;;;;21.30;62.10;;;;;;6307036;22;19989;-70
2023/06/24 04:17:55;;;;;;;;;;;21.70;61.80;;;;;;6306721;22;19979;-71
2023/06/24 04:20:21;;;;;;;;;;;22.00;61.20;;;;;;6307432;22;20114;-70
2023/06/24 04:22:46;;;;;;;;;;;22.20;61.00;;;;;;6306580;22;20283;-70
2023/06/24 04:25:12;;;;;;;;;;;22.50;60.60;;;;;;6306825;22;19992;-70
2023/06/24 04:27:37;;;;;;;;;;;22.80;60.70;;;;;;6306489;22;19903;-69
2023/06/24 04:30:03;;;;;;;;;;;23.10;59.30;;;;;;6306677;22;19911;-68
2023/06/24 04:32:28;;;;;;;;;;;23.30;58.90;;;;;;6306353;22;19903;-71
2023/06/24 04:34:54;;;;;;;;;;;23.70;59.20;;;;;;6306246;22;19911;-71
2023/06/24 04:37:19;;;;;;;;;;;24.10;58.90;;;;;;6306514;22;19910;-69
2023/06/24 04:39:45;;;;;;;;;;;24.40;56.10;;;;;;6306187;22;19933;-68
2023/06/24 04:42:11;;;;;;;;;;;24.60;56.20;;;;;;6305125;22;20273;-69
2023/06/24 04:44:36;;;;;;;;;;;24.90;54.10;;;;;;6278866;22;19950;-68
2023/06/24 04:47:02;;;;;;;;;;;25.20;54.70;;;;;;6305837;22;19906;-68
2023/06/24 04:49:27;;;;;;;;;;;25.50;53.50;;;;;;6278634;22;19961;-68
2023/06/24 04:51:53;;;;;;;;;;;25.80;51.60;;;;;;6306300;22;19956;-69
2023/06/24 04:54:18;;;;;;;;;;;26.00;52.00;;;;;;6306436;22;20025;-68
2023/06/24 04:56:45;;;;;;;;;;;26.40;52.10;;;;;;6305946;22;19956;-69
2023/06/24 04:59:10;;;;;;;;;;;26.70;51.40;;;;;;6305935;22;19918;-69
2023/06/24 05:01:36;;;;;;;;;;;27.00;50.50;;;;;;6306005;22;19966;-69
2023/06/24 05:04:01;;;;;;;;;;;27.30;50.50;;;;;;6305710;22;19947;-75
2023/06/24 05:06:27;;;;;;;;;;;27.80;50.20;;;;;;6306196;22;19983;-76
2023/06/24 05:08:52;;;;;;;;;;;28.20;49.10;;;;;;6305974;22;19919;-76
2023/06/24 05:11:18;;;;;;;;;;;28.50;46.80;;;;;;6305545;22;19911;-75
2023/06/24 05:13:43;;;;;;;;;;;28.80;47.50;;;;;;6305249;22;19903;-75
2023/06/24 05:16:08;;;;;;;;;;;29.20;45.90;;;;;;6305529;22;19903;-75
2023/06/24 05:18:34;;;;;;;;;;;29.50;46.00;;;;;;6305889;22;19903;-76
2023/06/24 05:20:59;;;;;;;;;;;29.80;45.40;;;;;;6305838;22;20325;-73
2023/06/24 05:23:25;;;;;;;;;;;30.20;45.00;;;;;;6305887;22;19920;-76
2023/06/24 05:25:50;;;;;;;;;;;30.50;44.30;;;;;;6306106;22;19922;-74
2023/06/24 05:28:15;;;;;;;;;;;30.80;43.80;;;;;;6305366;22;20325;-76
2023/06/24 05:30:41;;;;;;;;;;;31.10;43.10;;;;;;6306245;22;19923;-75
2023/06/24 05:33:06;;;;;;;;;;;31.50;42.80;;;;;;6305612;22;19903;-75
2023/06/24 05:35:32;;;;;;;;;;;31.80;42.20;;;;;;6306068;22;20321;-75
2023/06/24 05:37:58;;;;;;;;;;;32.20;41.50;;;;;;6305274;22;19907;-75
2023/06/24 05:40:23;;;;;;;;;;;32.50;40.80;;;;;;6305729;22;20373;-75
2023/06/24 05:42:49;;;;;;;;;;;32.80;40.20;;;;;;6278068;22;19907;-76
2023/06/24 05:45:14;;;;;;;;;;;33.10;39.50;;;;;;6305955;22;19992;-75
2023/06/24 05:47:40;;;;;;;;;;;33.30;38.90;;;;;;6278193;22;19952;-75
2023/06/24 05:50:06;;;;;;;;;;;33.50;38.60;;;;;;6305705;22;19993;-75
2023/06/24 05:52:31;;;;;;;;;;;33.70;38.10;;;;;;6305670;22;19973;-75
2023/06/24 05:54:56;;;;;;;;;;;34.00;37.50;;;;;;6305334;22;20313;-75
2023/06/24 05:57:22;;;;;;;;;;;34.30;36.70;;;;;;6305556;22;19911;-75
2023/06/24 05:59:49;;;;;;;;;;;34.40;35.70;;;;;;6305030;22;21188;-75
2023/06/24 06:02:14;;;;;;;;;;;34.60;35.20;;;;;;6301732;22;19973;-75
2023/06/24 06:04:40;;;;;;;;;;;34.90;35.30;;;;;;6304604;22;19997;-74
2023/06/24 06:07:05;;;;;;;;;;;35.20;34.50;;;;;;6305018;22;20321;-74
2023/06/24 06:09:31;;;;;;;;;;;35.40;33.80;;;;;;6304868;22;19915;-75
2023/06/24 06:11:56;;;;;;;;;;;35.60;33.40;;;;;;6302360;22;19926;-74
2023/06/24 06:14:22;;;;;;;;;;;35.70;32.70;;;;;;6304119;22;20328;-74
2023/06/24 06:16:50;;;;;;;;;;;35.80;32.20;;;;;;6305020;22;19903;-74
2023/06/24 06:19:16;;;;;;;;;;;35.90;32.30;;;;;;6305946;22;20320;-74
2023/06/24 06:21:41;;;;;;;;;;;36.00;31.60;;;;;;6305752;22;19903;-74
2023/06/24 06:24:06;;;;;;;;;;;36.10;31.50;;;;;;6304856;22;19993;-74
2023/06/24 06:26:32;;;;;;;;;;;36.30;31.10;;;;;;6306364;22;19914;-74
2023/06/24 06:28:57;;;;;;;;;;;36.40;31.20;;;;;;6306255;22;19911;-74
2023/06/24 06:31:25;;;;;;;;;;;36.70;30.60;;;;;;6306723;22;19911;-75
2023/06/24 06:33:51;;;;;;;;;;;36.90;30.40;;;;;;6307684;22;19968;-75
2023/06/24 06:36:16;;;;;;;;;;;37.10;30.10;;;;;;6279524;22;20325;-75
2023/06/24 06:38:42;;;;;;;;;;;37.30;30.20;;;;;;6306769;22;19937;-75
2023/06/24 06:41:07;;;;;;;;;;;37.70;30.20;;;;;;6307651;22;19903;-75
2023/06/24 06:43:33;;;;;;;;;;;38.00;29.70;;;;;;6307721;22;20002;-74
2023/06/24 06:45:59;;;;;;;;;;;38.30;29.40;;;;;;6306253;22;20393;-76
2023/06/24 06:48:24;;;;;;;;;;;38.50;29.30;;;;;;6306126;22;19903;-75
2023/06/24 06:50:50;;;;;;;;;;;38.70;28.90;;;;;;6279880;22;19939;-75
2023/06/24 06:53:15;;;;;;;;;;;39.00;28.90;;;;;;6307344;22;19903;-75
2023/06/24 06:55:42;;;;;;;;;;;39.30;28.50;;;;;;6307178;22;19997;-74
2023/06/24 06:58:08;;;;;;;;;;;39.30;27.90;;;;;;6305919;22;19963;-74
2023/06/24 07:00:33;;;;;;;;;;;39.50;27.90;;;;;;6307498;22;20232;-74
2023/06/24 07:02:59;;;;;;;;;;;39.70;27.60;;;;;;6302778;22;19907;-74
2023/06/24 07:05:24;;;;;;;;;;;40.00;27.60;;;;;;6307651;22;19918;-74
2023/06/24 07:07:50;;;;;;;;;;;40.30;27.60;;;;;;6306190;22;20329;-74
2023/06/24 07:10:16;;;;;;;;;;;40.60;27.20;;;;;;6307580;22;19957;-74
2023/06/24 07:12:41;;;;;;;;;;;40.80;27.10;;;;;;6303800;22;20186;-74
2023/06/24 07:15:07;;;;;;;;;;;41.10;26.50;;;;;;6307083;22;19921;-74
2023/06/24 07:17:32;;;;;;;;;;;41.30;26.30;;;;;;6279804;22;19911;-73
2023/06/24 07:19:58;;;;;;;;;;;41.40;26.40;;;;;;6306260;22;20286;-73
2023/06/24 07:22:23;;;;;;;;;;;41.60;25.80;;;;;;6304275;22;19973;-72
2023/06/24 07:24:48;;;;;;;;;;;41.70;25.70;;;;;;6306116;22;19993;-73
2023/06/24 07:27:14;;;;;;;;;;;41.70;25.50;;;;;;6306704;22;19934;-72
2023/06/24 07:29:40;;;;;;;;;;;41.80;24.90;;;;;;6307488;22;19934;-72
2023/06/24 07:32:07;;;;;;;;;;;41.80;25.30;;;;;;6302828;22;19941;-71
2023/06/24 07:34:33;;;;;;;;;;;42.00;25.00;;;;;;6306783;22;19990;-72
2023/06/24 07:36:58;;;;;;;;;;;42.40;25.20;;;;;;6307044;22;19937;-72
2023/06/24 07:39:24;;;;;;;;;;;42.60;24.70;;;;;;6305283;22;19957;-72
2023/06/24 07:41:49;;;;;;;;;;;42.80;24.40;;;;;;6304199;22;19907;-72
2023/06/24 07:44:15;;;;;;;;;;;43.00;23.90;;;;;;6306048;22;20240;-74
2023/06/24 07:46:40;;;;;;;;;;;43.10;23.90;;;;;;6306990;22;19911;-71
2023/06/24 07:49:06;;;;;;;;;;;43.30;23.90;;;;;;6306727;22;19930;-72
2023/06/24 07:51:31;;;;;;;;;;;43.50;23.40;;;;;;6302495;22;20288;-73
2023/06/24 07:53:57;;;;;;;;;;;43.60;23.30;;;;;;6306716;22;19914;-73
2023/06/24 07:56:22;;;;;;;;;;;43.80;23.20;;;;;;6306032;22;19918;-73
2023/06/24 07:58:47;;;;;;;;;;;43.90;22.80;;;;;;6305987;22;19926;-73
2023/06/24 08:01:13;;;;;;;;;;;43.90;22.90;;;;;;6305400;22;19925;-72
2023/06/24 08:03:38;;;;;;;;;;;44.20;22.90;;;;;;6304005;22;20425;-74
2023/06/24 08:06:04;;;;;;;;;;;44.30;22.70;;;;;;6306079;22;20225;-74
2023/06/24 08:08:29;;;;;;;;;;;44.30;22.20;;;;;;6305636;22;19933;-73
2023/06/24 08:10:55;;;;;;;;;;;44.40;22.40;;;;;;6306149;22;20261;-73
2023/06/24 08:13:20;;;;;;;;;;;44.50;22.40;;;;;;6299416;22;20214;-73
2023/06/24 08:15:46;;;;;;;;;;;44.70;22.10;;;;;;6278435;22;19917;-74
2023/06/24 08:18:11;;;;;;;;;;;44.80;22.00;;;;;;6305178;22;19918;-74
2023/06/24 08:20:37;;;;;;;;;;;44.90;21.90;;;;;;6305185;22;20217;-73
2023/06/24 08:23:02;;;;;;;;;;;45.20;21.80;;;;;;6300853;22;19913;-74
2023/06/24 08:25:28;;;;;;;;;;;45.50;21.90;;;;;;6301961;22;19941;-72
2023/06/24 08:27:53;;;;;;;;;;;45.80;21.80;;;;;;6303111;22;20295;-74
2023/06/24 08:30:19;;;;;;;;;;;45.90;21.10;;;;;;6304756;22;19910;-74
2023/06/24 08:32:44;;;;;;;;;;;45.90;20.90;;;;;;6302128;22;19985;-74
2023/06/24 08:35:10;;;;;;;;;;;45.80;20.10;;;;;;6306707;22;19907;-73
2023/06/24 08:37:37;;;;;;;;;;;45.80;20.10;;;;;;6305766;22;20280;-74
2023/06/24 08:40:04;;;;;;;;;;;45.80;20.00;;;;;;6305559;22;19915;-74
2023/06/24 08:42:30;;;;;;;;;;;45.60;19.90;;;;;;6275090;22;19934;-75
2023/06/24 08:44:55;;;;;;;;;;;45.50;19.70;;;;;;6306161;22;19911;-74
2023/06/24 08:47:23;;;;;;;;;;;45.60;19.90;;;;;;6306316;22;19907;-74
2023/06/24 08:49:53;;;;;;;;;;;45.80;19.90;;;;;;6306591;22;20348;-75
2023/06/24 08:52:20;;;;;;;;;;;46.00;20.10;;;;;;6303156;22;19913;-75
2023/06/24 08:54:47;;;;;;;;;;;46.20;19.70;;;;;;6305817;22;19930;-75
2023/06/24 08:57:15;;;;;;;;;;;46.30;19.80;;;;;;6306151;22;20383;-76
2023/06/24 08:59:42;;;;;;;;;;;46.40;19.30;;;;;;6306096;22;19990;-75
2023/06/24 09:02:07;;;;;;;;;;;46.30;19.10;;;;;;6302873;22;19903;-75
2023/06/24 09:04:33;;;;;;;;;;;46.10;18.80;;;;;;6305778;22;19984;-74
2023/06/24 09:06:59;;;;;;;;;;;46.00;19.30;;;;;;6305613;22;19932;-75
2023/06/24 09:09:24;;;;;;;;;;;46.20;19.40;;;;;;6305348;22;19910;-74
2023/06/24 09:11:54;;;;;;;;;;;46.40;19.10;;;;;;6302578;22;19907;-75
2023/06/24 09:14:19;;;;;;;;;;;46.50;18.80;;;;;;6305625;22;19938;-76
2023/06/24 09:16:51;;;;;;;;;;;46.60;18.80;;;;;;6305552;22;19964;-74
2023/06/24 09:19:29;;;;;;;;;;;46.70;18.40;;;;;;6305606;22;20309;-74
2023/06/24 09:21:55;;;;;;;;;;;46.50;18.50;;;;;;6302678;22;19946;-74
2023/06/24 09:24:21;;;;;;;;;;;46.50;18.70;;;;;;6305179;22;19960;-75
2023/06/24 09:26:46;;;;;;;;;;;46.70;18.50;;;;;;6305561;22;20244;-74
2023/06/24 09:29:13;;;;;;;;;;;46.60;18.00;;;;;;6305683;22;19911;-76
2023/06/24 09:31:48;;;;;;;;;;;46.40;18.30;;;;;;6302892;22;19907;-74
2023/06/24 09:34:14;;;;;;;;;;;46.50;18.40;;;;;;6305821;22;20224;-76
2023/06/24 09:36:50;;;;;;;;;;;46.60;18.30;;;;;;6305818;22;19978;-72
2023/06/24 09:39:16;;;;;;;;;;;46.60;18.60;;;;;;6305601;22;19914;-76
2023/06/24 09:41:42;;;;;;;;;;;46.80;18.60;;;;;;6302394;22;19907;-75
2023/06/24 09:44:10;;;;;;;;;;;46.80;18.30;;;;;;6305472;22;20275;-76
2023/06/24 09:46:37;;;;;;;;;;;46.80;18.50;;;;;;6305805;22;19976;-76
2023/06/24 09:49:03;;;;;;;;;;;46.90;18.50;;;;;;6305245;22;19965;-74
2023/06/24 09:51:28;;;;;;;;;;;46.70;18.20;;;;;;6304324;22;19910;-76
2023/06/24 09:53:57;;;;;;;;;;;46.20;18.00;;;;;;6303832;22;19911;-77
2023/06/24 09:56:22;;;;;;;;;;;45.60;18.60;;;;;;6305167;22;19915;-77
2023/06/24 09:58:48;;;;;;;;;;;45.50;19.00;;;;;;6305067;22;19903;-76
2023/06/24 10:01:16;;;;;;;;;;;45.50;19.00;;;;;;6304244;22;20239;-74
2023/06/24 10:03:42;;;;;;;;;;;45.70;19.20;;;;;;6302761;22;19910;-75
2023/06/24 10:06:08;;;;;;;;;;;45.50;18.90;;;;;;6305625;22;19903;-75
2023/06/24 10:08:33;;;;;;;;;;;45.50;19.20;;;;;;6305040;22;19956;-75
2023/06/24 10:10:59;;;;;;;;;;;45.70;19.20;;;;;;6305787;22;19910;-75
2023/06/24 10:13:25;;;;;;;;;;;45.70;19.40;;;;;;6301426;22;19903;-76
2023/06/24 10:15:50;;;;;;;;;;;45.70;19.40;;;;;;6305549;22;19911;-76
2023/06/24 10:18:28;;;;;;;;;;;45.80;19.20;;;;;;6304729;22;19906;-76
2023/06/24 10:20:53;;;;;;;;;;;45.60;19.40;;;;;;6305967;22;20386;-75
2023/06/24 10:23:18;;;;;;;;;;;45.80;19.80;;;;;;6301844;22;19903;-75
2023/06/24 10:25:46;;;;;;;;;;;45.80;19.30;;;;;;6305860;22;19914;-75
2023/06/24 10:28:12;;;;;;;;;;;45.70;19.50;;;;;;6305307;22;20394;-76
2023/06/24 10:30:37;;;;;;;;;;;45.80;19.60;;;;;;6305949;22;19911;-76
2023/06/24 10:33:02;;;;;;;;;;;45.90;19.50;;;;;;6302137;22;19970;-76
2023/06/24 10:35:31;;;;;;;;;;;46.20;19.50;;;;;;6305751;22;19992;-76
2023/06/24 10:37:58;;;;;;;;;;;46.40;19.00;;;;;;6304903;22;19907;-77
2023/06/24 10:40:39;;;;;;;;;;;46.30;18.80;;;;;;6305804;22;19911;-75
2023/06/24 10:43:25;;;;;;;;;;;45.90;18.80;;;;;;6302053;22;19953;-75
2023/06/24 10:45:55;;;;;;;;;;;45.40;18.90;;;;;;6304689;22;20252;-75
2023/06/24 10:48:21;;;;;;;;;;;45.20;19.50;;;;;;6304981;22;19907;-75
2023/06/24 10:50:47;;;;;;;;;;;45.10;19.40;;;;;;6305836;22;20317;-75
2023/06/24 10:53:13;;;;;;;;;;;44.80;19.50;;;;;;6301488;22;20324;-75
2023/06/24 10:55:39;;;;;;;;;;;44.40;19.60;;;;;;6305691;22;20230;-75
2023/06/24 10:58:08;;;;;;;;;;;44.00;19.90;;;;;;6305473;22;19923;-75
2023/06/24 11:00:33;;;;;;;;;;;43.50;20.20;;;;;;6305830;22;20235;-75
2023/06/24 11:03:07;;;;;;;;;;;43.20;20.70;;;;;;6305202;22;19981;-75
2023/06/24 11:05:32;;;;;;;;;;;42.80;20.80;;;;;;6278233;22;19919;-75
2023/06/24 11:07:58;;;;;;;;;;;42.30;21.20;;;;;;6305317;22;20378;-74
2023/06/24 11:10:24;;;;;;;;;;;42.20;21.10;;;;;;6303828;22;19969;-74
2023/06/24 11:12:50;;;;;;;;;;;41.80;21.40;;;;;;6275077;22;19903;-74
2023/06/24 11:15:15;;;;;;;;;;;41.80;21.90;;;;;;6307098;22;19943;-73
2023/06/24 11:17:41;;;;;;;;;;;41.80;22.10;;;;;;6307037;22;19910;-73
2023/06/24 11:20:08;;;;;;;;;;;41.80;22.10;;;;;;6307019;22;19911;-73
2023/06/24 11:22:33;;;;;;;;;;;41.80;21.70;;;;;;6302955;22;20235;-76
2023/06/24 11:24:59;;;;;;;;;;;41.50;21.80;;;;;;6306909;22;19958;-74
2023/06/24 11:27:28;;;;;;;;;;;41.20;21.90;;;;;;6306723;22;19906;-76
2023/06/24 11:29:54;;;;;;;;;;;40.80;22.30;;;;;;6306949;22;19915;-73
2023/06/24 11:32:20;;;;;;;;;;;40.80;22.80;;;;;;6302588;22;19903;-74
2023/06/24 11:34:46;;;;;;;;;;;41.10;23.10;;;;;;6306959;22;19911;-73
2023/06/24 11:37:12;;;;;;;;;;;41.40;22.60;;;;;;6306674;22;20000;-74
2023/06/24 11:39:38;;;;;;;;;;;41.70;22.20;;;;;;6306874;22;20041;-74
2023/06/24 11:42:05;;;;;;;;;;;42.00;22.10;;;;;;6303952;22;19934;-75
2023/06/24 11:44:31;;;;;;;;;;;42.30;22.00;;;;;;6306718;22;20225;-75
2023/06/24 11:47:03;;;;;;;;;;;42.60;21.50;;;;;;6306547;22;19956;-75
2023/06/24 11:49:29;;;;;;;;;;;42.60;21.10;;;;;;6305969;22;19911;-74
2023/06/24 11:51:54;;;;;;;;;;;42.30;21.10;;;;;;6302509;22;19918;-74
2023/06/24 11:54:20;;;;;;;;;;;42.00;21.20;;;;;;6306526;22;20237;-74
2023/06/24 11:56:52;;;;;;;;;;;41.70;21.50;;;;;;6306377;22;20221;-74
2023/06/24 11:59:19;;;;;;;;;;;41.60;21.70;;;;;;6306554;22;19929;-74
2023/06/24 12:01:45;;;;;;;;;;;41.30;21.90;;;;;;6302350;22;19960;-74
2023/06/24 12:04:13;;;;;;;;;;;41.30;22.20;;;;;;6306001;22;19921;-74
2023/06/24 12:06:40;;;;;;;;;;;41.60;21.40;;;;;;6306726;22;19903;-74
2023/06/24 12:09:06;;;;;;;;;;;41.70;21.40;;;;;;6278743;22;19938;-74
2023/06/24 12:11:31;;;;;;;;;;;42.00;21.40;;;;;;6303512;22;19907;-73
2023/06/24 12:13:57;;;;;;;;;;;42.30;21.00;;;;;;6304653;22;19914;-73
2023/06/24 12:16:23;;;;;;;;;;;42.60;20.90;;;;;;6307690;22;19907;-73
2023/06/24 12:18:48;;;;;;;;;;;42.70;20.90;;;;;;6306595;22;19978;-73
2023/06/24 12:21:14;;;;;;;;;;;42.60;20.80;;;;;;6305414;22;19910;-72
2023/06/24 12:23:39;;;;;;;;;;;42.30;20.70;;;;;;6303466;22;19903;-73
2023/06/24 12:26:04;;;;;;;;;;;42.20;20.60;;;;;;6279977;22;20213;-73
2023/06/24 12:28:30;;;;;;;;;;;42.10;20.40;;;;;;6308117;22;19909;-72
2023/06/24 12:30:55;;;;;;;;;;;42.00;20.60;;;;;;6306361;22;19918;-73
2023/06/24 12:33:22;;;;;;;;;;;42.20;20.50;;;;;;6302375;22;19914;-73
2023/06/24 12:35:48;;;;;;;;;;;42.30;20.90;;;;;;6307037;22;20218;-73
2023/06/24 12:38:13;;;;;;;;;;;42.60;19.90;;;;;;6306983;22;19978;-72
2023/06/24 12:40:39;;;;;;;;;;;42.70;19.40;;;;;;6307219;22;20279;-73
2023/06/24 12:43:04;;;;;;;;;;;42.60;19.50;;;;;;6302558;22;19931;-72
2023/06/24 12:45:30;;;;;;;;;;;42.40;20.00;;;;;;6307312;22;19915;-72
2023/06/24 12:47:56;;;;;;;;;;;42.30;20.00;;;;;;6306423;22;20308;-72
2023/06/24 12:50:21;;;;;;;;;;;42.30;20.30;;;;;;6306850;22;19949;-72
2023/06/24 12:52:47;;;;;;;;;;;42.60;20.60;;;;;;6302344;22;19924;-72
2023/06/24 12:55:12;;;;;;;;;;;42.80;20.70;;;;;;6305438;22;19923;-72
2023/06/24 12:57:38;;;;;;;;;;;43.20;20.50;;;;;;6306489;22;19903;-72
2023/06/24 13:00:06;;;;;;;;;;;43.40;20.40;;;;;;6306909;22;20276;-73
2023/06/24 13:02:31;;;;;;;;;;;43.60;19.90;;;;;;6302871;22;19926;-73
2023/06/24 13:04:57;;;;;;;;;;;43.30;19.30;;;;;;6308395;22;19919;-73
2023/06/24 13:07:23;;;;;;;;;;;42.90;19.10;;;;;;6308183;22;19907;-73
2023/06/24 13:09:48;;;;;;;;;;;42.50;19.50;;;;;;6306996;22;20362;-73
2023/06/24 13:12:14;;;;;;;;;;;41.90;19.90;;;;;;6303048;22;19910;-72
2023/06/24 13:14:39;;;;;;;;;;;41.40;20.60;;;;;;6307232;22;19917;-73
2023/06/24 13:17:05;;;;;;;;;;;40.90;21.00;;;;;;6307967;22;19903;-73
2023/06/24 13:19:32;;;;;;;;;;;40.60;21.30;;;;;;6307677;22;19964;-73
2023/06/24 13:21:57;;;;;;;;;;;40.30;21.60;;;;;;6304329;22;20225;-72
2023/06/24 13:24:23;;;;;;;;;;;40.10;21.80;;;;;;6307982;22;20008;-73
2023/06/24 13:26:48;;;;;;;;;;;40.10;21.90;;;;;;6307752;22;19903;-73
2023/06/24 13:29:14;;;;;;;;;;;40.00;22.10;;;;;;6307913;22;19918;-72
2023/06/24 13:31:39;;;;;;;;;;;39.70;22.10;;;;;;6305271;22;19902;-72
2023/06/24 13:34:05;;;;;;;;;;;39.30;22.60;;;;;;6307765;22;19926;-72
2023/06/24 13:36:35;;;;;;;;;;;39.00;22.80;;;;;;6308669;22;19910;-72
2023/06/24 13:39:01;;;;;;;;;;;39.00;22.90;;;;;;6308581;22;20019;-72
2023/06/24 13:41:29;;;;;;;;;;;39.20;22.60;;;;;;6306314;22;19919;-72
2023/06/24 13:43:55;;;;;;;;;;;39.10;22.40;;;;;;6307712;22;19915;-72
2023/06/24 13:46:21;;;;;;;;;;;38.80;22.80;;;;;;6285339;22;19929;-72
2023/06/24 13:48:46;;;;;;;;;;;38.60;23.40;;;;;;6312246;22;20272;-71
2023/06/24 13:51:11;;;;;;;;;;;38.70;23.80;;;;;;6304900;22;19930;-73
2023/06/24 13:53:37;;;;;;;;;;;38.80;23.90;;;;;;6302693;22;20229;-75
2023/06/24 13:56:02;;;;;;;;;;;39.10;23.90;;;;;;6304945;22;20256;-73
2023/06/24 13:58:28;;;;;;;;;;;39.30;23.40;;;;;;6305169;22;19903;-75
2023/06/24 14:00:53;;;;;;;;;;;39.60;23.30;;;;;;6305845;22;19972;-76
2023/06/24 14:03:19;;;;;;;;;;;39.90;22.90;;;;;;6301147;22;20279;-75
2023/06/24 14:05:44;;;;;;;;;;;40.00;21.30;;;;;;6306023;22;20313;-75
2023/06/24 14:08:10;;;;;;;;;;;40.00;21.80;;;;;;6305337;22;19981;-75
2023/06/24 14:10:35;;;;;;;;;;;40.00;22.10;;;;;;6278090;22;19911;-76